sensor_id;sensor_type;location;lat;lon;timestamp;pressure;altitude;pressure_sealevel;temperature;humidity
48792;BME280;34587;48.816;9.420;2023-05-27T04:16:22;99424.38;;;11.23;81.74
48792;BME280;34587;48.816;9.420;2023-05-27T04:18:48;99420.78;;;11.33;81.29
48792;BME280;34587;48.816;9.420;2023-05-27T04:21:16;99426.91;;;11.28;81.46
48792;BME280;34587;48.816;9.420;2023-05-27T04:23:42;99427.69;;;11.35;81.91
48792;BME280;34587;48.816;9.420;2023-05-27T04:26:07;99437.25;;;11.31;81.63
48792;BME280;34587;48.816;9.420;2023-05-27T04:28:32;99437.84;;;11.54;81.42
48792;BME280;34587;48.816;9.420;2023-05-27T04:30:59;99436.19;;;11.49;80.55
48792;BME280;34587;48.816;9.420;2023-05-27T04:33:24;99433.44;;;11.63;80.50
48792;BME280;34587;48.816;9.420;2023-05-27T04:35:49;99435.06;;;11.70;80.34
48792;BME280;34587;48.816;9.420;2023-05-27T04:38:18;99435.88;;;11.76;78.24
48792;BME280;34587;48.816;9.420;2023-05-27T04:40:45;99437.63;;;11.76;78.80
48792;BME280;34587;48.816;9.420;2023-05-27T04:43:11;99429.78;;;11.82;79.16
48792;BME280;34587;48.816;9.420;2023-05-27T04:45:39;99431.25;;;12.01;78.41
48792;BME280;34587;48.816;9.420;2023-05-27T04:48:04;99432.84;;;12.12;78.20
48792;BME280;34587;48.816;9.420;2023-05-27T04:50:29;99432.69;;;12.24;76.64
48792;BME280;34587;48.816;9.420;2023-05-27T04:52:54;99428.19;;;12.35;77.88
48792;BME280;34587;48.816;9.420;2023-05-27T04:55:19;99435.13;;;12.34;76.51
48792;BME280;34587;48.816;9.420;2023-05-27T04:57:45;99428.75;;;12.55;73.90
48792;BME280;34587;48.816;9.420;2023-05-27T05:00:11;99427.84;;;12.58;73.64
48792;BME280;34587;48.816;9.420;2023-05-27T05:02:36;99432.09;;;12.64;73.36
48792;BME280;34587;48.816;9.420;2023-05-27T05:05:05;99429.53;;;12.60;72.99
48792;BME280;34587;48.816;9.420;2023-05-27T05:07:31;99432.72;;;12.78;71.42
48792;BME280;34587;48.816;9.420;2023-05-27T05:09:56;99423.84;;;12.90;71.74
48792;BME280;34587;48.816;9.420;2023-05-27T05:12:22;99432.28;;;13.05;73.09
48792;BME280;34587;48.816;9.420;2023-05-27T05:14:47;99429.56;;;13.10;71.36
48792;BME280;34587;48.816;9.420;2023-05-27T05:17:13;99432.72;;;13.29;69.89
48792;BME280;34587;48.816;9.420;2023-05-27T05:19:38;99423.78;;;13.44;69.23
48792;BME280;34587;48.816;9.420;2023-05-27T05:22:03;99427.09;;;13.52;68.83
48792;BME280;34587;48.816;9.420;2023-05-27T05:24:29;99424.31;;;13.61;68.72
48792;BME280;34587;48.816;9.420;2023-05-27T05:26:54;99424.22;;;13.66;68.21
48792;BME280;34587;48.816;9.420;2023-05-27T05:29:19;99423.59;;;13.54;68.46
48792;BME280;34587;48.816;9.420;2023-05-27T05:31:44;99426.56;;;13.78;68.70
48792;BME280;34587;48.816;9.420;2023-05-27T05:34:10;99426.28;;;13.93;67.62
48792;BME280;34587;48.816;9.420;2023-05-27T05:36:35;99428.47;;;13.70;67.68
48792;BME280;34587;48.816;9.420;2023-05-27T05:39:01;99438.78;;;13.76;67.47
48792;BME280;34587;48.816;9.420;2023-05-27T05:41:27;99431.19;;;14.05;65.36
48792;BME280;34587;48.816;9.420;2023-05-27T05:43:53;99431.25;;;14.04;66.73
48792;BME280;34587;48.816;9.420;2023-05-27T05:46:18;99429.34;;;14.10;65.64
48792;BME280;34587;48.816;9.420;2023-05-27T05:48:43;99426.28;;;14.32;64.51
48792;BME280;34587;48.816;9.420;2023-05-27T05:51:08;99428.19;;;14.62;64.66
48792;BME280;34587;48.816;9.420;2023-05-27T05:53:33;99425.31;;;14.75;63.00
48792;BME280;34587;48.816;9.420;2023-05-27T05:55:59;99428.34;;;14.92;63.34
48792;BME280;34587;48.816;9.420;2023-05-27T05:58:24;99426.19;;;15.08;62.75
48792;BME280;34587;48.816;9.420;2023-05-27T06:00:49;99433.59;;;15.25;60.61
48792;BME280;34587;48.816;9.420;2023-05-27T06:03:15;99433.34;;;15.34;61.56
48792;BME280;34587;48.816;9.420;2023-05-27T06:05:40;99426.00;;;15.48;59.80
48792;BME280;34587;48.816;9.420;2023-05-27T06:08:05;99427.47;;;15.58;59.23
48792;BME280;34587;48.816;9.420;2023-05-27T06:10:31;99430.75;;;15.66;60.17
48792;BME280;34587;48.816;9.420;2023-05-27T06:12:56;99424.94;;;15.86;58.27
48792;BME280;34587;48.816;9.420;2023-05-27T06:15:21;99421.75;;;16.06;58.51
48792;BME280;34587;48.816;9.420;2023-05-27T06:17:46;99427.41;;;16.21;58.16
48792;BME280;34587;48.816;9.420;2023-05-27T06:20:12;99417.69;;;16.52;58.21
48792;BME280;34587;48.816;9.420;2023-05-27T06:22:37;99415.41;;;16.96;56.68
48792;BME280;34587;48.816;9.420;2023-05-27T06:25:03;99417.19;;;16.95;54.95
48792;BME280;34587;48.816;9.420;2023-05-27T06:27:28;99412.78;;;17.23;53.86
48792;BME280;34587;48.816;9.420;2023-05-27T06:29:53;99416.84;;;17.31;53.64
48792;BME280;34587;48.816;9.420;2023-05-27T06:32:18;99408.44;;;17.21;52.93
48792;BME280;34587;48.816;9.420;2023-05-27T06:34:43;99409.50;;;17.41;53.00
48792;BME280;34587;48.816;9.420;2023-05-27T06:37:09;99407.34;;;18.22;52.24
48792;BME280;34587;48.816;9.420;2023-05-27T06:39:34;99410.94;;;18.64;48.80
48792;BME280;34587;48.816;9.420;2023-05-27T06:41:59;99410.56;;;18.95;48.19
48792;BME280;34587;48.816;9.420;2023-05-27T06:44:24;99408.09;;;19.12;46.81
48792;BME280;34587;48.816;9.420;2023-05-27T06:46:50;99399.91;;;19.39;45.78
48792;BME280;34587;48.816;9.420;2023-05-27T06:49:15;99402.94;;;19.50;45.47
48792;BME280;34587;48.816;9.420;2023-05-27T06:51:40;99398.31;;;20.51;42.89
48792;BME280;34587;48.816;9.420;2023-05-27T06:54:05;99399.91;;;21.91;39.16
48792;BME280;34587;48.816;9.420;2023-05-27T06:56:31;99408.09;;;22.33;38.35
48792;BME280;34587;48.816;9.420;2023-05-27T06:58:56;99406.69;;;22.74;37.86
48792;BME280;34587;48.816;9.420;2023-05-27T07:01:21;99401.34;;;23.78;35.65
48792;BME280;34587;48.816;9.420;2023-05-27T07:03:46;99398.09;;;23.59;35.43
48792;BME280;34587;48.816;9.420;2023-05-27T07:06:12;99397.97;;;24.59;34.10
48792;BME280;34587;48.816;9.420;2023-05-27T07:08:37;99399.41;;;25.43;33.39
48792;BME280;34587;48.816;9.420;2023-05-27T07:11:02;99399.88;;;27.42;30.40
48792;BME280;34587;48.816;9.420;2023-05-27T07:13:27;99405.94;;;28.12;29.25
48792;BME280;34587;48.816;9.420;2023-05-27T07:15:53;99406.56;;;29.02;27.45
48792;BME280;34587;48.816;9.420;2023-05-27T07:18:18;99405.31;;;29.27;27.24
48792;BME280;34587;48.816;9.420;2023-05-27T07:20:43;99409.34;;;28.03;28.63
48792;BME280;34587;48.816;9.420;2023-05-27T07:23:08;99412.03;;;28.89;27.38
48792;BME280;34587;48.816;9.420;2023-05-27T07:25:34;99405.16;;;28.87;27.67
48792;BME280;34587;48.816;9.420;2023-05-27T07:27:59;99413.44;;;27.04;28.99
48792;BME280;34587;48.816;9.420;2023-05-27T07:30:24;99404.69;;;26.67;30.44
48792;BME280;34587;48.816;9.420;2023-05-27T07:32:51;99401.03;;;26.20;30.60
48792;BME280;34587;48.816;9.420;2023-05-27T07:35:16;99400.03;;;26.82;30.14
48792;BME280;34587;48.816;9.420;2023-05-27T07:37:42;99407.44;;;26.05;30.57
48792;BME280;34587;48.816;9.420;2023-05-27T07:40:07;99402.00;;;26.56;30.27
48792;BME280;34587;48.816;9.420;2023-05-27T07:42:32;99394.56;;;27.65;29.45
48792;BME280;34587;48.816;9.420;2023-05-27T07:44:57;99400.50;;;25.78;31.55
48792;BME280;34587;48.816;9.420;2023-05-27T07:47:22;99395.53;;;27.64;29.05
48792;BME280;34587;48.816;9.420;2023-05-27T07:49:49;99383.69;;;28.02;27.86
48792;BME280;34587;48.816;9.420;2023-05-27T07:52:14;99391.63;;;27.46;29.14
48792;BME280;34587;48.816;9.420;2023-05-27T07:54:39;99392.81;;;28.42;27.71
48792;BME280;34587;48.816;9.420;2023-05-27T07:57:05;99395.97;;;27.13;29.39
48792;BME280;34587;48.816;9.420;2023-05-27T07:59:31;99390.63;;;28.80;27.02
48792;BME280;34587;48.816;9.420;2023-05-27T08:01:56;99388.94;;;29.11;26.55
48792;BME280;34587;48.816;9.420;2023-05-27T08:04:21;99394.69;;;28.20;27.97
48792;BME280;34587;48.816;9.420;2023-05-27T08:06:47;99396.91;;;29.83;26.15
48792;BME280;34587;48.816;9.420;2023-05-27T08:09:12;99387.31;;;29.71;25.88
48792;BME280;34587;48.816;9.420;2023-05-27T08:11:37;99380.00;;;28.25;27.79
48792;BME280;34587;48.816;9.420;2023-05-27T08:14:02;99375.50;;;28.48;27.88
48792;BME280;34587;48.816;9.420;2023-05-27T08:16:28;99375.41;;;28.38;27.53
48792;BME280;34587;48.816;9.420;2023-05-27T08:18:53;99374.22;;;30.08;27.48
48792;BME280;34587;48.816;9.420;2023-05-27T08:21:18;99378.25;;;29.62;26.14
48792;BME280;34587;48.816;9.420;2023-05-27T08:23:43;99368.38;;;31.02;25.90
48792;BME280;34587;48.816;9.420;2023-05-27T08:26:08;99359.28;;;30.06;26.28
48792;BME280;34587;48.816;9.420;2023-05-27T08:28:34;99365.78;;;29.42;25.99
48792;BME280;34587;48.816;9.420;2023-05-27T08:31:02;99353.97;;;31.69;24.81
48792;BME280;34587;48.816;9.420;2023-05-27T08:33:27;99354.34;;;30.70;25.64
48792;BME280;34587;48.816;9.420;2023-05-27T08:35:52;99356.28;;;30.68;25.22
48792;BME280;34587;48.816;9.420;2023-05-27T08:38:18;99349.50;;;30.55;25.14
48792;BME280;34587;48.816;9.420;2023-05-27T08:40:43;99343.03;;;31.80;24.32
48792;BME280;34587;48.816;9.420;2023-05-27T08:43:08;99343.63;;;31.84;24.14
48792;BME280;34587;48.816;9.420;2023-05-27T08:45:34;99342.06;;;32.09;24.18
48792;BME280;34587;48.816;9.420;2023-05-27T08:48:00;99345.91;;;31.41;24.43
48792;BME280;34587;48.816;9.420;2023-05-27T08:50:26;99339.66;;;30.36;25.32
48792;BME280;34587;48.816;9.420;2023-05-27T08:52:54;99333.03;;;31.55;24.01
48792;BME280;34587;48.816;9.420;2023-05-27T08:55:20;99337.06;;;32.41;24.06
48792;BME280;34587;48.816;9.420;2023-05-27T08:57:53;99341.03;;;32.73;23.59
48792;BME280;34587;48.816;9.420;2023-05-27T09:00:19;99336.81;;;32.70;22.43
48792;BME280;34587;48.816;9.420;2023-05-27T09:02:44;99329.25;;;33.10;22.90
48792;BME280;34587;48.816;9.420;2023-05-27T09:05:10;99337.69;;;30.57;24.81
48792;BME280;34587;48.816;9.420;2023-05-27T09:07:36;99328.97;;;33.89;21.49
48792;BME280;34587;48.816;9.420;2023-05-27T09:10:01;99327.47;;;32.57;23.04
48792;BME280;34587;48.816;9.420;2023-05-27T09:12:26;99329.16;;;35.12;20.43
48792;BME280;34587;48.816;9.420;2023-05-27T09:14:52;99326.81;;;34.84;20.83
48792;BME280;34587;48.816;9.420;2023-05-27T09:17:17;99316.53;;;33.88;21.44
48792;BME280;34587;48.816;9.420;2023-05-27T09:19:43;99321.19;;;36.44;20.07
48792;BME280;34587;48.816;9.420;2023-05-27T09:22:09;99321.06;;;36.98;19.75
48792;BME280;34587;48.816;9.420;2023-05-27T09:24:34;99317.91;;;37.98;18.98
48792;BME280;34587;48.816;9.420;2023-05-27T09:26:59;99317.00;;;35.24;21.07
48792;BME280;34587;48.816;9.420;2023-05-27T09:29:25;99313.22;;;31.28;24.53
48792;BME280;34587;48.816;9.420;2023-05-27T09:31:54;99320.78;;;30.95;24.31
48792;BME280;34587;48.816;9.420;2023-05-27T09:34:22;99314.63;;;30.46;25.80
48792;BME280;34587;48.816;9.420;2023-05-27T09:36:48;99300.59;;;32.92;23.28
48792;BME280;34587;48.816;9.420;2023-05-27T09:39:14;99305.56;;;34.24;21.71
48792;BME280;34587;48.816;9.420;2023-05-27T09:41:40;99306.16;;;30.80;24.98
48792;BME280;34587;48.816;9.420;2023-05-27T09:44:06;99307.00;;;28.49;27.87
48792;BME280;34587;48.816;9.420;2023-05-27T09:46:32;99296.31;;;30.61;25.36
48792;BME280;34587;48.816;9.420;2023-05-27T09:48:57;99296.72;;;31.33;24.32
48792;BME280;34587;48.816;9.420;2023-05-27T09:51:23;99292.25;;;31.88;24.06
48792;BME280;34587;48.816;9.420;2023-05-27T09:53:49;99287.97;;;31.40;24.66
48792;BME280;34587;48.816;9.420;2023-05-27T09:56:15;99287.38;;;33.25;22.65
48792;BME280;34587;48.816;9.420;2023-05-27T09:58:41;99293.94;;;31.89;23.97
48792;BME280;34587;48.816;9.420;2023-05-27T10:01:06;99288.50;;;31.99;23.90
48792;BME280;34587;48.816;9.420;2023-05-27T10:03:32;99281.19;;;32.98;22.66
48792;BME280;34587;48.816;9.420;2023-05-27T10:05:57;99285.63;;;32.64;22.96
48792;BME280;34587;48.816;9.420;2023-05-27T10:08:24;99285.03;;;30.58;25.67
48792;BME280;34587;48.816;9.420;2023-05-27T10:10:49;99279.13;;;30.25;25.53
48792;BME280;34587;48.816;9.420;2023-05-27T10:13:14;99277.72;;;30.21;25.63
48792;BME280;34587;48.816;9.420;2023-05-27T10:15:45;99271.97;;;32.57;23.86
48792;BME280;34587;48.816;9.420;2023-05-27T10:18:11;99275.13;;;33.57;23.01
48792;BME280;34587;48.816;9.420;2023-05-27T10:20:48;99269.41;;;31.29;24.29
48792;BME280;34587;48.816;9.420;2023-05-27T10:23:15;99269.13;;;30.66;24.68
48792;BME280;34587;48.816;9.420;2023-05-27T10:25:47;99277.50;;;29.43;25.79
48792;BME280;34587;48.816;9.420;2023-05-27T10:28:32;99271.25;;;28.72;27.07
48792;BME280;34587;48.816;9.420;2023-05-27T10:31:04;99258.97;;;31.26;24.11
48792;BME280;34587;48.816;9.420;2023-05-27T10:33:30;99263.47;;;30.69;24.59
48792;BME280;34587;48.816;9.420;2023-05-27T10:35:56;99255.19;;;31.84;23.19
48792;BME280;34587;48.816;9.420;2023-05-27T10:38:21;99257.72;;;30.44;24.67
48792;BME280;34587;48.816;9.420;2023-05-27T10:40:46;99247.00;;;29.86;25.52
48792;BME280;34587;48.816;9.420;2023-05-27T10:43:19;99253.16;;;29.27;26.32
48792;BME280;34587;48.816;9.420;2023-05-27T10:45:47;99254.34;;;28.30;27.63
48792;BME280;34587;48.816;9.420;2023-05-27T10:48:19;99255.00;;;28.85;26.24
48792;BME280;34587;48.816;9.420;2023-05-27T10:50:51;99236.16;;;30.56;24.37
48792;BME280;34587;48.816;9.420;2023-05-27T10:53:19;99245.75;;;29.90;25.08
48792;BME280;34587;48.816;9.420;2023-05-27T10:55:46;99239.94;;;30.82;24.92
48792;BME280;34587;48.816;9.420;2023-05-27T10:58:12;99237.63;;;30.21;25.24
48792;BME280;34587;48.816;9.420;2023-05-27T11:00:37;99232.09;;;31.45;23.46
48792;BME280;34587;48.816;9.420;2023-05-27T11:03:03;99234.09;;;29.01;25.58
48792;BME280;34587;48.816;9.420;2023-05-27T11:05:28;99229.44;;;29.93;25.14
48792;BME280;34587;48.816;9.420;2023-05-27T11:07:54;99225.69;;;31.56;23.61
48792;BME280;34587;48.816;9.420;2023-05-27T11:10:20;99229.81;;;31.51;23.36
48792;BME280;34587;48.816;9.420;2023-05-27T11:12:46;99238.72;;;29.99;23.91
48792;BME280;34587;48.816;9.420;2023-05-27T11:15:13;99231.84;;;30.35;24.64
48792;BME280;34587;48.816;9.420;2023-05-27T11:17:38;99229.94;;;31.21;23.80
48792;BME280;34587;48.816;9.420;2023-05-27T11:20:03;99234.81;;;30.23;24.25
48792;BME280;34587;48.816;9.420;2023-05-27T11:22:30;99228.16;;;28.98;25.80
48792;BME280;34587;48.816;9.420;2023-05-27T11:27:21;99209.66;;;30.91;23.80
48792;BME280;34587;48.816;9.420;2023-05-27T11:29:50;99213.13;;;31.02;23.55
48792;BME280;34587;48.816;9.420;2023-05-27T11:32:16;99209.63;;;29.06;25.28
48792;BME280;34587;48.816;9.420;2023-05-27T11:34:44;99220.41;;;28.32;25.92
48792;BME280;34587;48.816;9.420;2023-05-27T11:37:11;99203.66;;;29.73;25.62
48792;BME280;34587;48.816;9.420;2023-05-27T11:39:37;99202.59;;;28.74;25.81
48792;BME280;34587;48.816;9.420;2023-05-27T11:42:05;99209.34;;;28.15;26.63
48792;BME280;34587;48.816;9.420;2023-05-27T11:44:30;99198.84;;;29.07;25.22
48792;BME280;34587;48.816;9.420;2023-05-27T11:46:58;99192.88;;;31.54;23.36
48792;BME280;34587;48.816;9.420;2023-05-27T11:49:27;99190.88;;;29.17;25.52
48792;BME280;34587;48.816;9.420;2023-05-27T11:51:56;99194.91;;;29.02;25.39
48792;BME280;34587;48.816;9.420;2023-05-27T11:54:22;99195.78;;;29.62;24.48
48792;BME280;34587;48.816;9.420;2023-05-27T11:56:48;99190.47;;;27.21;28.33
48792;BME280;34587;48.816;9.420;2023-05-27T11:59:13;99184.63;;;25.65;29.58
48792;BME280;34587;48.816;9.420;2023-05-27T12:01:39;99178.97;;;26.86;29.45
48792;BME280;34587;48.816;9.420;2023-05-27T12:04:04;99172.25;;;26.01;29.49
48792;BME280;34587;48.816;9.420;2023-05-27T12:06:29;99168.13;;;25.73;30.21
48792;BME280;34587;48.816;9.420;2023-05-27T12:08:56;99154.56;;;25.77;30.52
48792;BME280;34587;48.816;9.420;2023-05-27T12:11:21;99153.16;;;25.96;30.74
48792;BME280;34587;48.816;9.420;2023-05-27T12:13:47;99158.72;;;25.93;30.64
48792;BME280;34587;48.816;9.420;2023-05-27T12:16:12;99144.88;;;26.58;30.07
48792;BME280;34587;48.816;9.420;2023-05-27T12:18:37;99146.78;;;25.98;29.72
48792;BME280;34587;48.816;9.420;2023-05-27T12:21:03;99149.28;;;25.64;31.15
48792;BME280;34587;48.816;9.420;2023-05-27T12:23:29;99135.88;;;25.66;30.26
48792;BME280;34587;48.816;9.420;2023-05-27T12:25:54;99132.53;;;25.27;29.20
48792;BME280;34587;48.816;9.420;2023-05-27T12:28:19;99130.97;;;25.73;30.20
48792;BME280;34587;48.816;9.420;2023-05-27T12:30:44;99131.31;;;25.20;30.41
48792;BME280;34587;48.816;9.420;2023-05-27T12:33:11;99131.03;;;24.86;31.05
48792;BME280;34587;48.816;9.420;2023-05-27T12:35:36;99119.06;;;25.30;30.73
48792;BME280;34587;48.816;9.420;2023-05-27T12:38:01;99121.47;;;25.57;30.21
48792;BME280;34587;48.816;9.420;2023-05-27T12:40:27;99116.22;;;25.93;27.80
48792;BME280;34587;48.816;9.420;2023-05-27T12:42:52;99115.81;;;25.86;29.33
48792;BME280;34587;48.816;9.420;2023-05-27T12:45:17;99132.88;;;25.23;29.33
48792;BME280;34587;48.816;9.420;2023-05-27T12:47:43;99129.97;;;25.38;29.67
48792;BME280;34587;48.816;9.420;2023-05-27T12:50:08;99129.69;;;25.30;28.67
48792;BME280;34587;48.816;9.420;2023-05-27T12:52:33;99112.94;;;25.65;29.02
48792;BME280;34587;48.816;9.420;2023-05-27T12:55:00;99120.41;;;25.60;27.95
48792;BME280;34587;48.816;9.420;2023-05-27T12:57:25;99117.44;;;25.41;28.67
48792;BME280;34587;48.816;9.420;2023-05-27T12:59:50;99104.03;;;26.01;27.73
48792;BME280;34587;48.816;9.420;2023-05-27T13:02:16;99112.59;;;25.94;27.59
48792;BME280;34587;48.816;9.420;2023-05-27T13:04:41;99112.94;;;25.65;28.04
48792;BME280;34587;48.816;9.420;2023-05-27T13:07:09;99107.47;;;24.95;29.22
48792;BME280;34587;48.816;9.420;2023-05-27T13:09:34;99098.72;;;25.18;29.28
48792;BME280;34587;48.816;9.420;2023-05-27T13:12:00;99090.69;;;25.44;27.50
48792;BME280;34587;48.816;9.420;2023-05-27T13:14:25;99081.59;;;25.94;27.48
48792;BME280;34587;48.816;9.420;2023-05-27T13:16:50;99089.56;;;25.70;27.61
48792;BME280;34587;48.816;9.420;2023-05-27T13:19:15;99089.47;;;25.48;26.89
48792;BME280;34587;48.816;9.420;2023-05-27T13:21:41;99084.13;;;25.36;27.52
48792;BME280;34587;48.816;9.420;2023-05-27T13:24:06;99084.16;;;25.48;28.30
48792;BME280;34587;48.816;9.420;2023-05-27T13:26:32;99082.88;;;25.53;27.14
48792;BME280;34587;48.816;9.420;2023-05-27T13:28:58;99074.34;;;25.13;27.38
48792;BME280;34587;48.816;9.420;2023-05-27T13:31:23;99084.28;;;25.46;25.60
48792;BME280;34587;48.816;9.420;2023-05-27T13:33:49;99076.91;;;25.15;25.57
48792;BME280;34587;48.816;9.420;2023-05-27T13:36:14;99073.97;;;24.94;25.63
48792;BME280;34587;48.816;9.420;2023-05-27T13:38:39;99069.69;;;25.04;26.23
48792;BME280;34587;48.816;9.420;2023-05-27T13:41:04;99074.94;;;25.64;26.64
48792;BME280;34587;48.816;9.420;2023-05-27T13:43:30;99051.53;;;25.94;26.44
48792;BME280;34587;48.816;9.420;2023-05-27T13:45:55;99061.34;;;25.69;26.16
48792;BME280;34587;48.816;9.420;2023-05-27T13:48:21;99062.31;;;25.68;26.18
48792;BME280;34587;48.816;9.420;2023-05-27T13:50:46;99057.03;;;25.20;26.79
48792;BME280;34587;48.816;9.420;2023-05-27T13:53:11;99060.28;;;25.00;26.34
48792;BME280;34587;48.816;9.420;2023-05-27T13:55:36;99047.94;;;25.35;25.16
48792;BME280;34587;48.816;9.420;2023-05-27T13:58:02;99044.41;;;25.59;24.59
48792;BME280;34587;48.816;9.420;2023-05-27T14:00:27;99034.97;;;25.79;24.97
48792;BME280;34587;48.816;9.420;2023-05-27T14:02:52;99039.72;;;25.98;24.19
48792;BME280;34587;48.816;9.420;2023-05-27T14:05:19;99036.06;;;25.28;22.86
48792;BME280;34587;48.816;9.420;2023-05-27T14:07:44;99027.53;;;25.71;23.62
48792;BME280;34587;48.816;9.420;2023-05-27T14:10:11;99028.25;;;25.62;21.58
48792;BME280;34587;48.816;9.420;2023-05-27T14:12:36;99028.06;;;25.41;22.50
48792;BME280;34587;48.816;9.420;2023-05-27T14:15:02;99029.66;;;25.44;21.87
48792;BME280;34587;48.816;9.420;2023-05-27T14:17:27;99025.09;;;25.57;23.38
48792;BME280;34587;48.816;9.420;2023-05-27T14:19:52;99016.25;;;25.80;23.70
48792;BME280;34587;48.816;9.420;2023-05-27T14:22:18;99012.09;;;25.65;24.09
48792;BME280;34587;48.816;9.420;2023-05-27T14:24:43;99008.66;;;25.52;24.02
48792;BME280;34587;48.816;9.420;2023-05-27T14:27:08;99015.31;;;25.57;23.43
48792;BME280;34587;48.816;9.420;2023-05-27T14:29:34;99010.47;;;25.51;23.91
48792;BME280;34587;48.816;9.420;2023-05-27T14:31:59;99010.81;;;25.35;24.57
48792;BME280;34587;48.816;9.420;2023-05-27T14:34:24;99008.44;;;24.96;25.25
48792;BME280;34587;48.816;9.420;2023-05-27T14:36:50;99006.47;;;25.34;23.21
48792;BME280;34587;48.816;9.420;2023-05-27T14:39:15;99003.34;;;25.41;23.05
48792;BME280;34587;48.816;9.420;2023-05-27T14:41:40;99003.63;;;25.49;23.99
48792;BME280;34587;48.816;9.420;2023-05-27T14:44:06;99005.31;;;25.50;23.43
48792;BME280;34587;48.816;9.420;2023-05-27T14:46:31;99012.28;;;25.40;22.80
48792;BME280;34587;48.816;9.420;2023-05-27T14:48:56;99008.13;;;25.24;23.66
48792;BME280;34587;48.816;9.420;2023-05-27T14:51:21;99004.69;;;25.46;22.83
48792;BME280;34587;48.816;9.420;2023-05-27T14:53:47;99004.81;;;25.56;22.55
48792;BME280;34587;48.816;9.420;2023-05-27T14:56:12;98994.31;;;25.89;21.78
48792;BME280;34587;48.816;9.420;2023-05-27T14:58:37;98997.44;;;25.95;24.11
48792;BME280;34587;48.816;9.420;2023-05-27T15:01:04;99001.31;;;25.91;23.70
48792;BME280;34587;48.816;9.420;2023-05-27T15:03:29;98997.00;;;25.66;23.03
48792;BME280;34587;48.816;9.420;2023-05-27T15:05:55;98995.28;;;26.00;23.28
48792;BME280;34587;48.816;9.420;2023-05-27T15:08:23;98990.22;;;26.53;23.11
48792;BME280;34587;48.816;9.420;2023-05-27T15:10:48;98989.97;;;26.45;23.46
48792;BME280;34587;48.816;9.420;2023-05-27T15:13:13;98985.25;;;25.81;23.58
48792;BME280;34587;48.816;9.420;2023-05-27T15:15:38;98990.22;;;25.97;24.83
48792;BME280;34587;48.816;9.420;2023-05-27T15:18:04;98989.72;;;25.80;25.05
48792;BME280;34587;48.816;9.420;2023-05-27T15:20:30;98977.59;;;25.65;25.21
48792;BME280;34587;48.816;9.420;2023-05-27T15:22:56;98988.19;;;25.54;25.47
48792;BME280;34587;48.816;9.420;2023-05-27T15:25:22;98972.28;;;25.54;25.34
48792;BME280;34587;48.816;9.420;2023-05-27T15:27:47;98987.09;;;25.56;25.18
48792;BME280;34587;48.816;9.420;2023-05-27T15:30:12;98979.25;;;25.44;25.60
48792;BME280;34587;48.816;9.420;2023-05-27T15:32:37;98983.94;;;25.51;25.52
48792;BME280;34587;48.816;9.420;2023-05-27T15:35:03;98979.75;;;25.60;25.29
48792;BME280;34587;48.816;9.420;2023-05-27T15:37:29;98978.50;;;25.42;25.40
48792;BME280;34587;48.816;9.420;2023-05-27T15:39:54;98983.31;;;25.48;25.41
48792;BME280;34587;48.816;9.420;2023-05-27T15:42:19;98981.94;;;25.66;25.38
48792;BME280;34587;48.816;9.420;2023-05-27T15:44:45;98974.19;;;25.52;25.24
48792;BME280;34587;48.816;9.420;2023-05-27T15:47:10;98976.88;;;25.28;25.10
48792;BME280;34587;48.816;9.420;2023-05-27T15:49:35;98964.75;;;25.48;25.42
48792;BME280;34587;48.816;9.420;2023-05-27T15:52:00;98968.25;;;25.83;26.10
48792;BME280;34587;48.816;9.420;2023-05-27T15:54:25;98966.06;;;26.00;26.05
48792;BME280;34587;48.816;9.420;2023-05-27T15:56:51;98959.31;;;25.84;25.35
48792;BME280;34587;48.816;9.420;2023-05-27T15:59:16;98957.63;;;25.95;26.18
48792;BME280;34587;48.816;9.420;2023-05-27T16:01:41;98956.06;;;26.03;25.52
48792;BME280;34587;48.816;9.420;2023-05-27T16:04:06;98962.69;;;25.98;26.07
48792;BME280;34587;48.816;9.420;2023-05-27T16:06:34;98960.47;;;25.69;25.84
48792;BME280;34587;48.816;9.420;2023-05-27T16:09:00;98959.69;;;25.45;26.34
48792;BME280;34587;48.816;9.420;2023-05-27T16:11:25;98962.00;;;25.60;25.94
48792;BME280;34587;48.816;9.420;2023-05-27T16:13:51;98960.56;;;25.56;26.21
48792;BME280;34587;48.816;9.420;2023-05-27T16:16:16;98952.16;;;25.74;26.18
48792;BME280;34587;48.816;9.420;2023-05-27T16:18:42;98947.69;;;25.74;26.62
48792;BME280;34587;48.816;9.420;2023-05-27T16:21:07;98949.59;;;24.91;25.83
48792;BME280;34587;48.816;9.420;2023-05-27T16:23:32;98941.31;;;24.95;26.68
48792;BME280;34587;48.816;9.420;2023-05-27T16:25:57;98941.47;;;25.29;26.63
48792;BME280;34587;48.816;9.420;2023-05-27T16:28:23;98942.78;;;25.34;26.18
48792;BME280;34587;48.816;9.420;2023-05-27T16:30:48;98935.28;;;25.28;26.77
48792;BME280;34587;48.816;9.420;2023-05-27T16:33:13;98932.88;;;25.01;26.58
48792;BME280;34587;48.816;9.420;2023-05-27T16:35:38;98931.78;;;25.04;27.47
48792;BME280;34587;48.816;9.420;2023-05-27T16:38:03;98939.22;;;24.87;26.56
48792;BME280;34587;48.816;9.420;2023-05-27T16:40:29;98930.56;;;25.09;26.52
48792;BME280;34587;48.816;9.420;2023-05-27T16:42:54;98935.19;;;25.06;26.54
48792;BME280;34587;48.816;9.420;2023-05-27T16:45:19;98931.31;;;24.75;27.15
48792;BME280;34587;48.816;9.420;2023-05-27T16:47:45;98926.69;;;24.66;27.19
48792;BME280;34587;48.816;9.420;2023-05-27T16:50:10;98926.69;;;24.66;27.31
48792;BME280;34587;48.816;9.420;2023-05-27T16:52:38;98917.84;;;24.54;28.46
48792;BME280;34587;48.816;9.420;2023-05-27T16:55:04;98934.91;;;24.13;28.10
48792;BME280;34587;48.816;9.420;2023-05-27T16:57:31;98925.72;;;24.30;28.28
48792;BME280;34587;48.816;9.420;2023-05-27T16:59:56;98923.22;;;24.28;27.77
48792;BME280;34587;48.816;9.420;2023-05-27T17:02:21;98925.63;;;24.31;27.58
48792;BME280;34587;48.816;9.420;2023-05-27T17:04:46;98923.22;;;24.28;28.19
48792;BME280;34587;48.816;9.420;2023-05-27T17:07:11;98923.22;;;24.28;27.87
48792;BME280;34587;48.816;9.420;2023-05-27T17:09:37;98921.47;;;24.53;27.72